createdAt,value
2022-07-29T07:34:36.982Z,43584.00
2022-07-29T07:45:12.003Z,67104.00
2022-07-29T07:55:02.235Z,75744.00
2022-07-29T08:05:12.644Z,71712.00
2022-07-29T08:15:19.982Z,59840.00
2022-07-29T08:26:45.760Z,75424.00
2022-07-29T08:36:51.632Z,88480.00
2022-07-29T08:46:59.296Z,90624.00
2022-07-29T08:57:05.986Z,88576.00
2022-07-29T09:07:13.832Z,58624.00
2022-07-29T09:17:21.367Z,68448.00
2022-07-29T09:28:47.461Z,71680.00
2022-07-29T09:38:53.977Z,66880.00
2022-07-29T09:50:20.654Z,32640.00
2022-07-29T10:00:26.376Z,34944.00
2022-07-29T10:11:53.110Z,85920.00
2022-07-29T10:22:01.401Z,76256.00
2022-07-29T10:33:27.674Z,80224.00
2022-07-29T10:43:33.630Z,20480.00
2022-07-29T11:05:40.646Z,30528.00
2022-07-29T11:21:05.418Z,65120.00
2022-07-29T11:35:17.464Z,78048.00
2022-07-29T11:46:48.463Z,58016.00
2022-07-29T12:14:09.545Z,64736.00
2022-07-29T12:56:15.564Z,76192.00
2022-07-29T13:07:55.822Z,73600.00
2022-07-29T13:17:47.998Z,54656.00
2022-07-29T13:29:14.476Z,11936.00
2022-07-29T13:53:56.320Z,14720.00
2022-07-29T14:22:42.691Z,10208.00
2022-07-29T14:35:33.509Z,11032.00
2022-07-29T14:47:01.576Z,7948.00
2022-07-29T14:57:14.907Z,8128.00
2022-07-29T15:14:00.845Z,11172.00
2022-07-29T15:37:48.994Z,7432.00
2022-07-29T15:47:42.965Z,9856.00
2022-07-29T16:11:03.776Z,4336.00
2022-07-29T16:23:49.583Z,4488.00
2022-07-29T16:33:57.766Z,3964.00
2022-07-29T16:57:20.456Z,3592.00
2022-07-29T17:07:27.429Z,3868.00
2022-07-29T17:37:27.855Z,2928.00
2022-07-29T17:48:52.324Z,2048.00
2022-07-29T17:58:57.668Z,1600.00
2022-07-29T18:09:07.226Z,1372.00
2022-07-29T18:19:14.338Z,1212.00
2022-07-29T18:29:21.656Z,984.00
2022-07-29T18:39:29.441Z,776.00
2022-07-29T18:49:36.431Z,508.00
2022-07-29T19:05:10.366Z,192.00
2022-07-29T19:15:20.327Z,76.00
2022-07-29T19:49:17.266Z,0.00
2022-07-29T19:59:24.722Z,0.00
2022-07-29T20:12:18.760Z,0.00
2022-07-29T20:22:25.400Z,0.00
